>
METAR
Output Produced by Metar
found at http://aviationweather.gov/adds/metars/
 

Data at: 1351 UTC 28 Jul 2021

METAR for:WIII (Jakarta Intl, JB, ID)
Text:WIII 281330Z 04002KT 6000 FEW022 26/21 Q1011 NOSIG
Temperature: 26.0°C ( 79°F)
Dewpoint: 21.0°C ( 70°F) [RH = 74%]
Pressure (altimeter):29.85 inches Hg (1011.0 mb)
Winds:from the NE (40 degrees) at 2 MPH (2 knots; 1.0 m/s)
Visibility: 4 sm ( 6 km)
Ceiling:at least 12,000 feet AGL
Clouds: few clouds at 2200 feet AGL